sensor_id;sensor_type;location;lat;lon;timestamp;P1;P2;P0
77411;PMS7003;66484;49.968;19.140;2024-01-30T00:01:52;208.75;185.50;113.25
77411;PMS7003;66484;49.968;19.140;2024-01-30T00:03:53;244.00;208.50;120.50
77411;PMS7003;66484;49.968;19.140;2024-01-30T00:05:53;267.75;231.50;131.00
77411;PMS7003;66484;49.968;19.140;2024-01-30T00:07:53;228.25;195.50;117.50
77411;PMS7003;66484;49.968;19.140;2024-01-30T00:09:54;235.00;199.25;122.50
77411;PMS7003;66484;49.968;19.140;2024-01-30T00:11:56;243.00;209.00;121.75
77411;PMS7003;66484;49.968;19.140;2024-01-30T00:13:56;269.50;229.00;130.50
77411;PMS7003;66484;49.968;19.140;2024-01-30T00:15:57;286.75;242.25;138.75
77411;PMS7003;66484;49.968;19.140;2024-01-30T00:17:58;219.25;192.75;110.25
77411;PMS7003;66484;49.968;19.140;2024-01-30T00:19:58;211.75;184.25;108.00
77411;PMS7003;66484;49.968;19.140;2024-01-30T00:21:59;197.00;164.75;92.50
77411;PMS7003;66484;49.968;19.140;2024-01-30T00:24:00;197.50;169.25;98.50
77411;PMS7003;66484;49.968;19.140;2024-01-30T00:26:00;224.75;198.25;113.75
77411;PMS7003;66484;49.968;19.140;2024-01-30T00:28:01;218.75;187.00;108.50
77411;PMS7003;66484;49.968;19.140;2024-01-30T00:30:02;201.00;177.50;99.25
77411;PMS7003;66484;49.968;19.140;2024-01-30T00:32:03;226.25;198.75;115.75
77411;PMS7003;66484;49.968;19.140;2024-01-30T00:34:04;212.00;181.75;105.00
77411;PMS7003;66484;49.968;19.140;2024-01-30T00:36:05;147.25;127.75;76.75
77411;PMS7003;66484;49.968;19.140;2024-01-30T00:38:06;131.25;118.25;70.25
77411;PMS7003;66484;49.968;19.140;2024-01-30T00:40:08;156.25;136.25;87.25
77411;PMS7003;66484;49.968;19.140;2024-01-30T00:42:13;124.75;107.75;46.25
77411;PMS7003;66484;49.968;19.140;2024-01-30T00:44:14;132.75;115.75;67.50
77411;PMS7003;66484;49.968;19.140;2024-01-30T00:46:15;104.50;86.50;48.25
77411;PMS7003;66484;49.968;19.140;2024-01-30T00:48:15;79.50;60.75;41.25
77411;PMS7003;66484;49.968;19.140;2024-01-30T00:50:16;85.50;67.00;42.25
77411;PMS7003;66484;49.968;19.140;2024-01-30T00:52:16;87.25;67.25;43.00
77411;PMS7003;66484;49.968;19.140;2024-01-30T00:54:17;100.75;82.25;49.50
77411;PMS7003;66484;49.968;19.140;2024-01-30T00:56:18;101.50;95.25;56.50
77411;PMS7003;66484;49.968;19.140;2024-01-30T00:58:19;174.25;139.75;85.25
77411;PMS7003;66484;49.968;19.140;2024-01-30T01:00:20;210.25;189.50;106.00
77411;PMS7003;66484;49.968;19.140;2024-01-30T01:02:21;228.50;191.50;101.75
77411;PMS7003;66484;49.968;19.140;2024-01-30T01:04:21;186.25;160.00;99.50
77411;PMS7003;66484;49.968;19.140;2024-01-30T01:06:22;175.25;146.75;85.75
77411;PMS7003;66484;49.968;19.140;2024-01-30T01:08:22;171.25;152.50;97.25
77411;PMS7003;66484;49.968;19.140;2024-01-30T01:10:23;207.50;172.25;100.75
77411;PMS7003;66484;49.968;19.140;2024-01-30T01:12:23;167.00;143.25;81.75
77411;PMS7003;66484;49.968;19.140;2024-01-30T01:14:24;173.25;152.25;83.00
77411;PMS7003;66484;49.968;19.140;2024-01-30T01:16:25;144.25;137.25;87.00
77411;PMS7003;66484;49.968;19.140;2024-01-30T01:18:26;97.50;84.75;49.50
77411;PMS7003;66484;49.968;19.140;2024-01-30T01:20:27;148.25;123.50;75.75
77411;PMS7003;66484;49.968;19.140;2024-01-30T01:22:28;169.25;152.00;92.00
77411;PMS7003;66484;49.968;19.140;2024-01-30T01:24:30;166.00;140.75;83.25
77411;PMS7003;66484;49.968;19.140;2024-01-30T01:26:31;116.50;102.00;63.75
77411;PMS7003;66484;49.968;19.140;2024-01-30T01:28:32;106.25;92.25;57.25
77411;PMS7003;66484;49.968;19.140;2024-01-30T01:30:32;161.50;142.25;82.25
77411;PMS7003;66484;49.968;19.140;2024-01-30T01:32:33;113.00;103.50;60.50
77411;PMS7003;66484;49.968;19.140;2024-01-30T01:34:34;78.75;61.75;43.00
77411;PMS7003;66484;49.968;19.140;2024-01-30T01:36:34;125.00;99.00;57.25
77411;PMS7003;66484;49.968;19.140;2024-01-30T01:38:35;142.75;120.25;66.75
77411;PMS7003;66484;49.968;19.140;2024-01-30T01:40:35;89.75;78.00;48.00
77411;PMS7003;66484;49.968;19.140;2024-01-30T01:42:36;133.00;114.25;67.75
77411;PMS7003;66484;49.968;19.140;2024-01-30T01:44:37;135.00;111.25;65.50
77411;PMS7003;66484;49.968;19.140;2024-01-30T01:46:38;167.25;144.25;82.00
77411;PMS7003;66484;49.968;19.140;2024-01-30T01:48:39;149.50;130.50;79.00
77411;PMS7003;66484;49.968;19.140;2024-01-30T01:50:40;155.25;134.75;78.75
77411;PMS7003;66484;49.968;19.140;2024-01-30T01:52:42;143.50;129.25;73.75
77411;PMS7003;66484;49.968;19.140;2024-01-30T01:54:42;127.75;106.75;64.75
77411;PMS7003;66484;49.968;19.140;2024-01-30T01:56:43;90.25;65.25;32.50
77411;PMS7003;66484;49.968;19.140;2024-01-30T01:58:44;133.50;105.25;64.25
77411;PMS7003;66484;49.968;19.140;2024-01-30T02:00:47;132.75;117.50;72.50
77411;PMS7003;66484;49.968;19.140;2024-01-30T02:02:48;98.50;79.25;47.00
77411;PMS7003;66484;49.968;19.140;2024-01-30T02:04:50;120.50;110.25;64.75
77411;PMS7003;66484;49.968;19.140;2024-01-30T02:06:50;157.75;139.50;85.50
77411;PMS7003;66484;49.968;19.140;2024-01-30T02:08:51;137.50;126.75;78.50
77411;PMS7003;66484;49.968;19.140;2024-01-30T02:10:52;109.25;98.00;61.25
77411;PMS7003;66484;49.968;19.140;2024-01-30T02:12:53;99.50;93.25;56.00
77411;PMS7003;66484;49.968;19.140;2024-01-30T02:14:53;117.50;102.00;60.75
77411;PMS7003;66484;49.968;19.140;2024-01-30T02:16:55;120.25;101.75;63.50
77411;PMS7003;66484;49.968;19.140;2024-01-30T02:18:56;143.75;126.75;71.25
77411;PMS7003;66484;49.968;19.140;2024-01-30T02:20:57;132.00;120.00;72.50
77411;PMS7003;66484;49.968;19.140;2024-01-30T02:23:01;131.50;112.50;68.00
77411;PMS7003;66484;49.968;19.140;2024-01-30T02:25:02;134.50;114.75;78.00
77411;PMS7003;66484;49.968;19.140;2024-01-30T02:27:03;143.75;133.25;76.50
77411;PMS7003;66484;49.968;19.140;2024-01-30T02:29:03;150.75;129.00;79.75
77411;PMS7003;66484;49.968;19.140;2024-01-30T02:31:04;154.50;129.00;81.25
77411;PMS7003;66484;49.968;19.140;2024-01-30T02:33:05;130.75;122.25;73.75
77411;PMS7003;66484;49.968;19.140;2024-01-30T02:35:06;125.00;109.00;67.00
77411;PMS7003;66484;49.968;19.140;2024-01-30T02:37:06;151.50;128.50;73.25
77411;PMS7003;66484;49.968;19.140;2024-01-30T02:39:07;136.50;115.50;71.25
77411;PMS7003;66484;49.968;19.140;2024-01-30T02:41:08;147.75;120.75;78.25
77411;PMS7003;66484;49.968;19.140;2024-01-30T02:43:08;144.50;129.00;81.50
77411;PMS7003;66484;49.968;19.140;2024-01-30T02:45:09;164.75;145.00;89.00
77411;PMS7003;66484;49.968;19.140;2024-01-30T02:47:10;139.00;122.50;73.75
77411;PMS7003;66484;49.968;19.140;2024-01-30T02:49:11;171.75;142.00;80.25
77411;PMS7003;66484;49.968;19.140;2024-01-30T02:51:11;140.25;122.50;72.00
77411;PMS7003;66484;49.968;19.140;2024-01-30T02:53:12;155.75;149.50;86.25
77411;PMS7003;66484;49.968;19.140;2024-01-30T02:55:12;188.50;145.00;85.25
77411;PMS7003;66484;49.968;19.140;2024-01-30T02:57:13;148.50;138.50;86.00
77411;PMS7003;66484;49.968;19.140;2024-01-30T02:59:14;168.00;136.50;79.75
77411;PMS7003;66484;49.968;19.140;2024-01-30T03:01:14;189.25;172.75;103.00
77411;PMS7003;66484;49.968;19.140;2024-01-30T03:03:15;188.50;165.75;99.50
77411;PMS7003;66484;49.968;19.140;2024-01-30T03:05:16;142.00;121.25;70.00
77411;PMS7003;66484;49.968;19.140;2024-01-30T03:07:16;189.25;161.75;100.00
77411;PMS7003;66484;49.968;19.140;2024-01-30T03:09:17;173.50;152.25;92.25
77411;PMS7003;66484;49.968;19.140;2024-01-30T03:11:20;168.25;141.75;89.25
77411;PMS7003;66484;49.968;19.140;2024-01-30T03:13:21;160.00;139.00;83.25
77411;PMS7003;66484;49.968;19.140;2024-01-30T03:15:23;146.00;127.00;79.75
77411;PMS7003;66484;49.968;19.140;2024-01-30T03:17:24;141.00;116.25;68.25
77411;PMS7003;66484;49.968;19.140;2024-01-30T03:19:24;98.00;78.25;46.00
77411;PMS7003;66484;49.968;19.140;2024-01-30T03:21:25;129.25;120.50;72.00
77411;PMS7003;66484;49.968;19.140;2024-01-30T03:23:25;137.75;124.50;78.00
77411;PMS7003;66484;49.968;19.140;2024-01-30T03:25:26;151.00;134.25;83.50
77411;PMS7003;66484;49.968;19.140;2024-01-30T03:27:26;163.00;143.00;84.00
77411;PMS7003;66484;49.968;19.140;2024-01-30T03:29:27;149.25;136.25;76.25
77411;PMS7003;66484;49.968;19.140;2024-01-30T03:31:27;110.50;95.50;49.75
77411;PMS7003;66484;49.968;19.140;2024-01-30T03:33:28;136.00;117.25;72.50
77411;PMS7003;66484;49.968;19.140;2024-01-30T03:35:29;123.25;111.00;73.75
77411;PMS7003;66484;49.968;19.140;2024-01-30T03:37:29;134.50;114.00;65.75
77411;PMS7003;66484;49.968;19.140;2024-01-30T03:39:30;113.00;98.00;63.50
77411;PMS7003;66484;49.968;19.140;2024-01-30T03:41:31;112.75;103.00;61.00
77411;PMS7003;66484;49.968;19.140;2024-01-30T03:43:31;109.00;92.75;58.50
77411;PMS7003;66484;49.968;19.140;2024-01-30T03:45:31;116.50;101.75;58.00
77411;PMS7003;66484;49.968;19.140;2024-01-30T03:47:32;127.00;115.00;69.50
77411;PMS7003;66484;49.968;19.140;2024-01-30T03:49:33;124.50;107.75;65.75
77411;PMS7003;66484;49.968;19.140;2024-01-30T03:51:33;110.00;97.50;58.75
77411;PMS7003;66484;49.968;19.140;2024-01-30T03:53:34;96.00;79.25;48.75
77411;PMS7003;66484;49.968;19.140;2024-01-30T03:55:35;96.75;82.75;51.50
77411;PMS7003;66484;49.968;19.140;2024-01-30T03:57:35;111.25;91.50;56.75
77411;PMS7003;66484;49.968;19.140;2024-01-30T03:59:36;91.50;71.00;48.50
77411;PMS7003;66484;49.968;19.140;2024-01-30T04:01:37;86.50;70.25;42.00
77411;PMS7003;66484;49.968;19.140;2024-01-30T04:03:37;103.25;88.25;53.75
77411;PMS7003;66484;49.968;19.140;2024-01-30T04:05:38;81.75;60.50;38.00
77411;PMS7003;66484;49.968;19.140;2024-01-30T04:07:38;82.25;64.25;42.00
77411;PMS7003;66484;49.968;19.140;2024-01-30T04:09:39;92.50;73.00;42.50
77411;PMS7003;66484;49.968;19.140;2024-01-30T04:11:40;85.00;69.75;42.25
77411;PMS7003;66484;49.968;19.140;2024-01-30T04:13:41;87.75;64.00;39.00
77411;PMS7003;66484;49.968;19.140;2024-01-30T04:15:43;81.75;62.25;40.50
77411;PMS7003;66484;49.968;19.140;2024-01-30T04:17:44;88.25;69.50;45.00
77411;PMS7003;66484;49.968;19.140;2024-01-30T04:19:44;96.50;85.50;51.75
77411;PMS7003;66484;49.968;19.140;2024-01-30T04:21:45;71.50;58.25;40.00
77411;PMS7003;66484;49.968;19.140;2024-01-30T04:23:45;66.50;53.75;35.00
77411;PMS7003;66484;49.968;19.140;2024-01-30T04:25:46;98.25;86.00;53.00
77411;PMS7003;66484;49.968;19.140;2024-01-30T04:27:47;80.25;63.50;40.25
77411;PMS7003;66484;49.968;19.140;2024-01-30T04:29:48;90.50;69.25;43.00
77411;PMS7003;66484;49.968;19.140;2024-01-30T04:31:48;84.00;66.00;42.25
77411;PMS7003;66484;49.968;19.140;2024-01-30T04:33:49;77.25;63.50;40.75
77411;PMS7003;66484;49.968;19.140;2024-01-30T04:35:50;96.00;82.75;48.75
77411;PMS7003;66484;49.968;19.140;2024-01-30T04:37:51;100.00;89.00;50.75
77411;PMS7003;66484;49.968;19.140;2024-01-30T04:39:53;88.75;71.00;42.50
77411;PMS7003;66484;49.968;19.140;2024-01-30T04:41:54;83.00;65.00;39.75
77411;PMS7003;66484;49.968;19.140;2024-01-30T04:43:54;120.75;106.50;61.25
77411;PMS7003;66484;49.968;19.140;2024-01-30T04:45:55;93.50;79.00;50.25
77411;PMS7003;66484;49.968;19.140;2024-01-30T04:47:55;98.00;88.75;53.50
77411;PMS7003;66484;49.968;19.140;2024-01-30T04:49:56;91.25;74.50;41.75
77411;PMS7003;66484;49.968;19.140;2024-01-30T04:51:56;114.00;102.75;60.25
77411;PMS7003;66484;49.968;19.140;2024-01-30T04:53:58;104.25;94.00;58.00
77411;PMS7003;66484;49.968;19.140;2024-01-30T04:55:58;125.75;101.75;62.75
77411;PMS7003;66484;49.968;19.140;2024-01-30T04:57:59;108.00;93.75;58.75
77411;PMS7003;66484;49.968;19.140;2024-01-30T05:00:00;113.75;100.75;61.50
77411;PMS7003;66484;49.968;19.140;2024-01-30T05:02:00;90.50;78.25;50.75
77411;PMS7003;66484;49.968;19.140;2024-01-30T05:04:01;94.75;79.25;45.50
77411;PMS7003;66484;49.968;19.140;2024-01-30T05:06:02;96.00;81.00;46.50
77411;PMS7003;66484;49.968;19.140;2024-01-30T05:08:03;109.25;99.00;56.75
77411;PMS7003;66484;49.968;19.140;2024-01-30T05:10:04;111.50;95.25;57.00
77411;PMS7003;66484;49.968;19.140;2024-01-30T05:12:04;93.00;72.25;44.50
77411;PMS7003;66484;49.968;19.140;2024-01-30T05:14:05;96.50;76.25;48.00
77411;PMS7003;66484;49.968;19.140;2024-01-30T05:16:06;95.00;81.00;52.00
77411;PMS7003;66484;49.968;19.140;2024-01-30T05:18:08;91.25;74.50;45.00
77411;PMS7003;66484;49.968;19.140;2024-01-30T05:20:08;93.50;76.00;45.25
77411;PMS7003;66484;49.968;19.140;2024-01-30T05:22:10;92.75;75.00;46.25
77411;PMS7003;66484;49.968;19.140;2024-01-30T05:24:15;90.00;73.50;46.25
77411;PMS7003;66484;49.968;19.140;2024-01-30T05:26:16;89.25;70.00;39.25
77411;PMS7003;66484;49.968;19.140;2024-01-30T05:28:17;104.00;94.75;53.50
77411;PMS7003;66484;49.968;19.140;2024-01-30T05:30:17;108.00;101.75;60.75
77411;PMS7003;66484;49.968;19.140;2024-01-30T05:32:18;107.25;90.25;54.50
77411;PMS7003;66484;49.968;19.140;2024-01-30T05:34:18;101.00;88.00;56.25
77411;PMS7003;66484;49.968;19.140;2024-01-30T05:36:19;118.75;100.00;61.50
77411;PMS7003;66484;49.968;19.140;2024-01-30T05:38:20;111.75;103.25;58.00
77411;PMS7003;66484;49.968;19.140;2024-01-30T05:40:21;127.50;114.75;72.50
77411;PMS7003;66484;49.968;19.140;2024-01-30T05:42:22;141.50;118.25;69.75
77411;PMS7003;66484;49.968;19.140;2024-01-30T05:44:22;162.25;139.50;80.00
77411;PMS7003;66484;49.968;19.140;2024-01-30T05:46:23;160.00;147.00;85.25
77411;PMS7003;66484;49.968;19.140;2024-01-30T05:48:24;148.75;134.75;77.50
77411;PMS7003;66484;49.968;19.140;2024-01-30T05:50:24;117.00;104.25;66.25
77411;PMS7003;66484;49.968;19.140;2024-01-30T05:52:26;111.25;101.25;62.00
77411;PMS7003;66484;49.968;19.140;2024-01-30T05:54:27;160.25;136.75;79.75
77411;PMS7003;66484;49.968;19.140;2024-01-30T05:56:27;212.25;182.00;101.50
77411;PMS7003;66484;49.968;19.140;2024-01-30T05:58:29;179.75;159.50;89.25
77411;PMS7003;66484;49.968;19.140;2024-01-30T06:00:31;153.75;133.75;80.25
77411;PMS7003;66484;49.968;19.140;2024-01-30T06:02:32;155.50;137.50;83.75
77411;PMS7003;66484;49.968;19.140;2024-01-30T06:04:32;134.00;113.25;69.25
77411;PMS7003;66484;49.968;19.140;2024-01-30T06:06:33;128.75;117.00;70.25
77411;PMS7003;66484;49.968;19.140;2024-01-30T06:08:33;144.00;119.00;76.75
77411;PMS7003;66484;49.968;19.140;2024-01-30T06:10:34;123.75;109.00;70.50
77411;PMS7003;66484;49.968;19.140;2024-01-30T06:12:35;143.00;120.75;74.25
77411;PMS7003;66484;49.968;19.140;2024-01-30T06:14:35;166.25;147.00;84.00
77411;PMS7003;66484;49.968;19.140;2024-01-30T06:16:36;163.75;141.25;85.00
77411;PMS7003;66484;49.968;19.140;2024-01-30T06:18:37;162.50;133.00;76.75
77411;PMS7003;66484;49.968;19.140;2024-01-30T06:20:37;176.00;150.75;85.25
77411;PMS7003;66484;49.968;19.140;2024-01-30T06:22:38;126.75;117.50;72.25
77411;PMS7003;66484;49.968;19.140;2024-01-30T06:24:39;178.25;162.25;96.75
77411;PMS7003;66484;49.968;19.140;2024-01-30T06:26:39;191.25;169.50;95.75
77411;PMS7003;66484;49.968;19.140;2024-01-30T06:28:40;191.00;171.25;96.00
77411;PMS7003;66484;49.968;19.140;2024-01-30T06:30:41;166.50;139.00;88.75
77411;PMS7003;66484;49.968;19.140;2024-01-30T06:32:41;180.00;162.75;90.25
77411;PMS7003;66484;49.968;19.140;2024-01-30T06:34:42;122.50;107.75;66.75
77411;PMS7003;66484;49.968;19.140;2024-01-30T06:36:44;128.00;111.75;69.00
77411;PMS7003;66484;49.968;19.140;2024-01-30T06:38:45;108.50;94.00;54.00
77411;PMS7003;66484;49.968;19.140;2024-01-30T06:40:45;137.00;120.75;73.00
77411;PMS7003;66484;49.968;19.140;2024-01-30T06:42:46;111.00;102.50;58.50
77411;PMS7003;66484;49.968;19.140;2024-01-30T06:44:47;102.50;93.00;54.75
77411;PMS7003;66484;49.968;19.140;2024-01-30T06:46:47;89.25;72.25;45.25
77411;PMS7003;66484;49.968;19.140;2024-01-30T06:48:48;100.75;87.25;56.50
77411;PMS7003;66484;49.968;19.140;2024-01-30T06:50:49;89.75;69.75;42.50
77411;PMS7003;66484;49.968;19.140;2024-01-30T06:52:50;89.25;67.25;41.75
77411;PMS7003;66484;49.968;19.140;2024-01-30T06:54:51;78.75;61.00;40.00
77411;PMS7003;66484;49.968;19.140;2024-01-30T06:56:52;91.50;66.00;42.00
77411;PMS7003;66484;49.968;19.140;2024-01-30T06:58:52;84.75;67.25;45.00
77411;PMS7003;66484;49.968;19.140;2024-01-30T07:00:54;106.00;88.25;51.75
77411;PMS7003;66484;49.968;19.140;2024-01-30T07:02:54;90.00;74.00;46.00
77411;PMS7003;66484;49.968;19.140;2024-01-30T07:04:55;94.50;74.25;49.50
77411;PMS7003;66484;49.968;19.140;2024-01-30T07:06:55;81.00;63.00;40.25
77411;PMS7003;66484;49.968;19.140;2024-01-30T07:08:57;85.00;64.50;40.00
77411;PMS7003;66484;49.968;19.140;2024-01-30T07:10:58;90.25;73.00;44.25
77411;PMS7003;66484;49.968;19.140;2024-01-30T07:13:00;93.00;75.50;45.00
77411;PMS7003;66484;49.968;19.140;2024-01-30T07:15:00;92.50;82.25;51.00
77411;PMS7003;66484;49.968;19.140;2024-01-30T07:17:03;90.75;77.25;47.50
77411;PMS7003;66484;49.968;19.140;2024-01-30T07:19:04;94.50;84.50;52.25
77411;PMS7003;66484;49.968;19.140;2024-01-30T07:21:04;92.50;80.25;49.75
77411;PMS7003;66484;49.968;19.140;2024-01-30T07:23:05;94.00;81.25;52.00
77411;PMS7003;66484;49.968;19.140;2024-01-30T07:25:06;103.25;91.50;54.00
77411;PMS7003;66484;49.968;19.140;2024-01-30T07:27:07;98.00;87.25;51.75
77411;PMS7003;66484;49.968;19.140;2024-01-30T07:29:07;95.25;83.25;54.75
77411;PMS7003;66484;49.968;19.140;2024-01-30T07:31:08;82.50;64.50;41.75
77411;PMS7003;66484;49.968;19.140;2024-01-30T07:33:09;93.50;82.75;50.50
77411;PMS7003;66484;49.968;19.140;2024-01-30T07:35:09;92.50;79.25;46.25
77411;PMS7003;66484;49.968;19.140;2024-01-30T07:37:11;92.50;76.00;46.75
77411;PMS7003;66484;49.968;19.140;2024-01-30T07:39:15;116.75;100.25;58.50
77411;PMS7003;66484;49.968;19.140;2024-01-30T07:41:16;127.00;118.00;68.25
77411;PMS7003;66484;49.968;19.140;2024-01-30T07:43:16;138.25;124.25;75.75
77411;PMS7003;66484;49.968;19.140;2024-01-30T07:45:17;111.25;102.25;69.00
77411;PMS7003;66484;49.968;19.140;2024-01-30T07:47:22;96.75;85.25;49.50
77411;PMS7003;66484;49.968;19.140;2024-01-30T07:49:22;121.75;109.25;65.50
77411;PMS7003;66484;49.968;19.140;2024-01-30T07:51:23;90.25;81.75;49.75
77411;PMS7003;66484;49.968;19.140;2024-01-30T07:53:24;118.50;103.00;59.00
77411;PMS7003;66484;49.968;19.140;2024-01-30T07:55:25;114.25;103.00;63.50
77411;PMS7003;66484;49.968;19.140;2024-01-30T07:57:27;115.50;104.00;60.25
77411;PMS7003;66484;49.968;19.140;2024-01-30T07:59:28;102.75;88.00;52.00
77411;PMS7003;66484;49.968;19.140;2024-01-30T08:01:29;99.00;87.50;50.50
77411;PMS7003;66484;49.968;19.140;2024-01-30T08:03:29;91.50;74.50;48.00
77411;PMS7003;66484;49.968;19.140;2024-01-30T08:05:30;92.00;80.50;50.75
77411;PMS7003;66484;49.968;19.140;2024-01-30T08:07:31;99.25;87.75;52.75
77411;PMS7003;66484;49.968;19.140;2024-01-30T08:09:32;109.00;84.50;54.00
77411;PMS7003;66484;49.968;19.140;2024-01-30T08:11:32;113.25;99.00;59.25
77411;PMS7003;66484;49.968;19.140;2024-01-30T08:13:33;111.25;99.00;57.25
77411;PMS7003;66484;49.968;19.140;2024-01-30T08:15:33;108.25;94.50;58.50
77411;PMS7003;66484;49.968;19.140;2024-01-30T08:17:34;97.00;85.50;52.50
77411;PMS7003;66484;49.968;19.140;2024-01-30T08:19:35;79.00;61.00;39.75
77411;PMS7003;66484;49.968;19.140;2024-01-30T08:21:35;78.50;60.50;39.50
77411;PMS7003;66484;49.968;19.140;2024-01-30T08:23:38;86.25;70.00;44.25
77411;PMS7003;66484;49.968;19.140;2024-01-30T08:25:39;77.00;60.75;39.00
77411;PMS7003;66484;49.968;19.140;2024-01-30T08:27:39;75.25;60.75;40.75
77411;PMS7003;66484;49.968;19.140;2024-01-30T08:29:40;89.25;77.75;46.00
77411;PMS7003;66484;49.968;19.140;2024-01-30T08:31:41;76.25;59.25;36.50
77411;PMS7003;66484;49.968;19.140;2024-01-30T08:33:42;74.25;59.50;37.75
77411;PMS7003;66484;49.968;19.140;2024-01-30T08:35:42;85.50;70.50;42.00
77411;PMS7003;66484;49.968;19.140;2024-01-30T08:37:43;81.50;64.25;40.50
77411;PMS7003;66484;49.968;19.140;2024-01-30T08:39:44;81.25;62.50;39.50
77411;PMS7003;66484;49.968;19.140;2024-01-30T08:41:44;84.00;66.75;45.00
77411;PMS7003;66484;49.968;19.140;2024-01-30T08:43:45;89.00;76.75;37.00
77411;PMS7003;66484;49.968;19.140;2024-01-30T08:45:46;90.75;73.25;42.00
77411;PMS7003;66484;49.968;19.140;2024-01-30T08:47:46;97.75;86.00;50.50
77411;PMS7003;66484;49.968;19.140;2024-01-30T08:49:47;85.75;71.75;40.50
77411;PMS7003;66484;49.968;19.140;2024-01-30T08:51:47;88.00;71.25;40.00
77411;PMS7003;66484;49.968;19.140;2024-01-30T08:53:48;82.25;64.75;40.00
77411;PMS7003;66484;49.968;19.140;2024-01-30T08:55:48;80.25;61.75;40.00
77411;PMS7003;66484;49.968;19.140;2024-01-30T08:57:49;80.00;61.00;39.75
77411;PMS7003;66484;49.968;19.140;2024-01-30T08:59:50;73.50;57.50;36.00
77411;PMS7003;66484;49.968;19.140;2024-01-30T09:01:50;79.25;61.25;39.75
77411;PMS7003;66484;49.968;19.140;2024-01-30T09:03:53;66.75;54.25;33.00
77411;PMS7003;66484;49.968;19.140;2024-01-30T09:05:54;85.00;74.00;44.00
77411;PMS7003;66484;49.968;19.140;2024-01-30T09:07:54;85.50;67.75;42.75
77411;PMS7003;66484;49.968;19.140;2024-01-30T09:09:55;87.75;73.25;42.00
77411;PMS7003;66484;49.968;19.140;2024-01-30T09:11:55;85.50;69.75;45.00
77411;PMS7003;66484;49.968;19.140;2024-01-30T09:13:56;86.25;64.50;38.75
77411;PMS7003;66484;49.968;19.140;2024-01-30T09:15:57;82.25;67.50;40.50
77411;PMS7003;66484;49.968;19.140;2024-01-30T09:17:57;80.75;65.25;40.00
77411;PMS7003;66484;49.968;19.140;2024-01-30T09:19:58;81.75;63.50;43.50
77411;PMS7003;66484;49.968;19.140;2024-01-30T09:21:59;84.50;74.50;43.75
77411;PMS7003;66484;49.968;19.140;2024-01-30T09:24:03;80.75;68.50;42.00
77411;PMS7003;66484;49.968;19.140;2024-01-30T09:26:06;85.00;71.75;42.25
77411;PMS7003;66484;49.968;19.140;2024-01-30T09:28:07;80.00;64.25;40.50
77411;PMS7003;66484;49.968;19.140;2024-01-30T09:30:08;86.50;71.00;42.25
77411;PMS7003;66484;49.968;19.140;2024-01-30T09:32:08;79.75;63.50;41.00
77411;PMS7003;66484;49.968;19.140;2024-01-30T09:34:09;81.50;65.50;40.75
77411;PMS7003;66484;49.968;19.140;2024-01-30T09:36:10;80.25;61.25;38.25
77411;PMS7003;66484;49.968;19.140;2024-01-30T09:38:10;83.50;69.25;44.50
77411;PMS7003;66484;49.968;19.140;2024-01-30T09:40:11;94.75;83.50;48.50
77411;PMS7003;66484;49.968;19.140;2024-01-30T09:42:25;88.50;67.50;42.00
77411;PMS7003;66484;49.968;19.140;2024-01-30T09:44:31;84.25;70.75;42.75
77411;PMS7003;66484;49.968;19.140;2024-01-30T09:46:35;78.75;60.25;38.25
77411;PMS7003;66484;49.968;19.140;2024-01-30T09:48:36;81.25;64.25;41.25
77411;PMS7003;66484;49.968;19.140;2024-01-30T09:50:37;85.00;69.50;41.50
77411;PMS7003;66484;49.968;19.140;2024-01-30T09:52:39;78.75;61.50;41.50
77411;PMS7003;66484;49.968;19.140;2024-01-30T09:54:41;86.50;71.00;43.50
77411;PMS7003;66484;49.968;19.140;2024-01-30T09:56:42;82.25;64.25;40.50
77411;PMS7003;66484;49.968;19.140;2024-01-30T09:58:43;84.25;67.75;43.75
77411;PMS7003;66484;49.968;19.140;2024-01-30T10:00:43;80.50;69.25;43.75
77411;PMS7003;66484;49.968;19.140;2024-01-30T10:02:44;84.75;66.50;41.75
77411;PMS7003;66484;49.968;19.140;2024-01-30T10:04:49;82.75;68.00;38.75
77411;PMS7003;66484;49.968;19.140;2024-01-30T10:06:50;88.75;73.75;44.00
77411;PMS7003;66484;49.968;19.140;2024-01-30T10:08:51;78.00;59.75;37.00
77411;PMS7003;66484;49.968;19.140;2024-01-30T10:10:51;86.25;67.50;40.00
77411;PMS7003;66484;49.968;19.140;2024-01-30T10:12:52;82.00;68.00;43.00
77411;PMS7003;66484;49.968;19.140;2024-01-30T10:14:53;80.00;60.75;41.75
77411;PMS7003;66484;49.968;19.140;2024-01-30T10:16:55;81.75;66.00;42.75
77411;PMS7003;66484;49.968;19.140;2024-01-30T10:18:56;87.00;69.75;42.00
77411;PMS7003;66484;49.968;19.140;2024-01-30T10:20:57;83.00;67.00;44.00
77411;PMS7003;66484;49.968;19.140;2024-01-30T10:22:57;82.25;64.25;43.00
77411;PMS7003;66484;49.968;19.140;2024-01-30T10:24:58;83.00;69.75;42.75
77411;PMS7003;66484;49.968;19.140;2024-01-30T10:27:00;84.25;71.75;42.25
77411;PMS7003;66484;49.968;19.140;2024-01-30T10:29:01;87.50;73.50;45.00
77411;PMS7003;66484;49.968;19.140;2024-01-30T10:31:02;85.75;70.50;42.50
77411;PMS7003;66484;49.968;19.140;2024-01-30T10:33:06;80.00;63.75;40.25
77411;PMS7003;66484;49.968;19.140;2024-01-30T10:35:08;88.00;73.75;43.75
77411;PMS7003;66484;49.968;19.140;2024-01-30T10:37:09;79.75;60.25;42.50
77411;PMS7003;66484;49.968;19.140;2024-01-30T10:39:12;87.25;71.25;44.50
77411;PMS7003;66484;49.968;19.140;2024-01-30T10:41:18;78.75;64.25;39.00
77411;PMS7003;66484;49.968;19.140;2024-01-30T10:43:22;48.50;36.25;7.00
77411;PMS7003;66484;49.968;19.140;2024-01-30T10:45:24;76.50;59.25;35.00
77411;PMS7003;66484;49.968;19.140;2024-01-30T10:47:28;90.75;77.50;45.75
77411;PMS7003;66484;49.968;19.140;2024-01-30T10:49:29;85.50;75.50;47.00
77411;PMS7003;66484;49.968;19.140;2024-01-30T10:51:31;100.50;83.50;54.50
77411;PMS7003;66484;49.968;19.140;2024-01-30T10:53:32;83.75;76.00;45.50
77411;PMS7003;66484;49.968;19.140;2024-01-30T10:55:33;87.75;72.50;45.75
77411;PMS7003;66484;49.968;19.140;2024-01-30T10:57:35;94.00;80.50;48.50
77411;PMS7003;66484;49.968;19.140;2024-01-30T10:59:39;79.50;64.00;38.75